AirNav   Air Wisconsin Up To $57,000 Bonus
 
 1555 users online  

05FD Aventura Heliport
North Miami Beach, Florida, USA

GOING TO NORTH MIAMI BEACH?


FAA INFORMATION EFFECTIVE 15 JULY 2021

Location

FAA Identifier: 05FD
Lat/Long: 25-57-39.3310N 080-08-21.1630W
25-57.655517N 080-08.352717W
25.9609253,-80.1392119
(estimated)
Elevation: 6 ft. / 2 m (estimated)
Variation: 03W (1985)
From city: 3 miles N of NORTH MIAMI BEACH, FL
Time zone: UTC -4 (UTC -5 during Standard Time)
Zip code: 33180

Heliport Operations

Heliport use: Private use. Permission required prior to landing
Activation date: 06/1991
Control tower: no
ARTCC: MIAMI CENTER
FSS: MIAMI FLIGHT SERVICE STATION
Attendance: 0800-1600
Segmented circle: no
Lights: FOR POLE & LANDSCAPE LIGHTING CALL 305-933-6911.
Landing fee: yes

Heliport Communications

WX ASOS at HWO (6 nm NW): PHONE 954-983-5904
WX ASOS at FLL (7 nm N): 135.0 (954-359-7857)
WX ASOS at OPF (8 nm SW): 125.9 (305-681-4063)
WX ASOS at MIA (13 nm SW): 119.15 (305-870-0235)
WX ASOS at FXE (14 nm N): 119.85 (954-772-2537)
WX ASOS at PMP (17 nm N): 120.55 (954-783-3720)

Nearby radio navigation aids

VOR radial/distance  VOR name  Freq  Var
FLLr174/6.9FORT LAUDERDALE VOR/DME114.4006W
VKZr008/12.6VIRGINIA KEY VOR/DME117.1004W
DHPr054/14.9DOLPHIN VORTAC113.9004W

Heliport Services

Runway Information

Helipad H1

Dimensions: 95 x 95 ft. / 29 x 29 m
Surface: turf
Runway edge lights: non-standard
POLE AND LANDSCAPE LIGHTING.
Traffic pattern: leftleft

Heliport Ownership and Management from official FAA records

Ownership: Privately-owned
Owner: DON SOFFER
19495 BISCAYNE BLVD SUITE 900
NORTH MIAMI BEACH, FL 33180
Phone 305-937-6200
Manager: TURNBERRY ISLE RESORT
19999 W. COUNTRY CLUB DRIVE
AVENTURA, FL 33180
Phone 305-932-6200

Additional Remarks

FOR CD CTC MIAMI APCH AT 305-869-5432.

Instrument Procedures

There are no published instrument procedures at 05FD.

Some nearby airports with instrument procedures:

KHWO - North Perry Airport (6 nm NW)
KFLL - Fort Lauderdale/Hollywood International Airport (7 nm N)
KOPF - Miami-Opa Locka Executive Airport (8 nm SW)
KMIA - Miami International Airport (13 nm SW)
KFXE - Fort Lauderdale Executive Airport (14 nm N)
KPMP - Pompano Beach Airpark (17 nm N)
 
Loc | Ops | Rwys | IFR | FBO | Links
Com | Nav | Svcs | Stats | Notes


 
Area around 05FD (Aventura Heliport)
 
Road maps at: MapQuest Bing Google
 
Aerial photo
No photo
 
Sectional chart

 
Airport distance calculator
Flying to Aventura Heliport? Find the distance to fly.

From to 05FD

Sunrise and sunset
Times for 26-Jul-2021
 Local
(UTC-4)
 Zulu
(UTC)
Morning civil twilight06:1910:19
Sunrise06:4510:45
Sunset20:1000:10
Evening civil twilight20:3500:35

Current date and time
Zulu (UTC)  26-Jul-2021 20:41:37
Local (UTC-4)  26-Jul-2021 16:41:37
 
METAR
KHWO 
6nm NW 
261953Z 12010KT 10SM SCT034 BKN042 BKN049 32/23 A2996 RMK AO2 SLP144 T03170233
KFLL 
6nm N 
261953Z 14010KT 10SM FEW025 FEW120 BKN250 32/24 A2996 RMK CB DSNT SW-NW
KOPF 
8nm W 
261953Z AUTO 17007KT 10SM FEW036 FEW050 32/23 A2995 RMK AO2 SLP142 T03220228
KMIA 
14nm SW 
261953Z 11008KT 10SM SCT033 SCT130 BKN250 32/24 A2995 RMK AO2 SLP141 CB DSNT SW-NW T03220244
KFXE 
15nm N 
261953Z 14010KT 10SM FEW030 32/24 A2994 RMK AO2 SLP141 T03170239
KPMP 
17nm N 
261953Z 15008KT 10SM CLR 32/24 A2995 RMK AO2 SLP143 T03170239
TAF
KFLL 
6nm N 
261726Z 2618/2724 14010KT P6SM VCTS SCT030CB SCT060 TEMPO 2619/2621 VRB10G24KT 3SM TSRA BKN025CB FM262300 16006KT P6SM VCSH FEW025 SCT050 FM270100 VRB04KT P6SM SCT030 BKN070 FM271400 15008KT P6SM VCSH SCT030 SCT060
KOPF 
8nm W 
261726Z 2618/2718 14010KT P6SM VCTS SCT030CB BKN080 FM262300 16006KT P6SM VCSH FEW025 SCT050 FM270100 VRB04KT P6SM SCT030 BKN070
KMIA 
14nm SW 
261726Z 2618/2724 14008KT P6SM VCTS SCT030CB SCT060 TEMPO 2619/2621 VRB10G23KT 3SM TSRA BKN025CB FM262300 16006KT P6SM VCSH FEW025 SCT050 FM270200 VRB04KT P6SM SCT030 BKN070 FM271400 15008KT P6SM VCSH SCT030 SCT060
KFXE 
15nm N 
261726Z 2618/2718 14010KT P6SM VCTS SCT030CB BKN060 FM262300 16006KT P6SM VCSH FEW025 SCT050 FM270100 VRB04KT P6SM SCT030 BKN070
NOTAMs
Click for the latest NOTAMs
NOTAMs are issued by the DoD/FAA and will open in a separate window not controlled by AirNav.

 

 
 

Would you like to see your business listed on this page?

 If your business provides an interesting product or service to pilots, flight crews, aircraft, or users of the Aventura Heliport, you should consider listing it here.  To start the listing process, click on the button below
 
Add a business
 

Other Pages about Aventura Heliport

Update a link
 
Copyright © AirNav, LLC. All rights reserved. Privacy Policy  Contact